sensor_id;sensor_type;location;lat;lon;timestamp;P1;durP1;ratioP1;P2;durP2;ratioP2
67456;SDS011;54319;52.038;4.640;2022-09-12T00:00:40;22.38;;;14.32;;
67456;SDS011;54319;52.038;4.640;2022-09-12T00:03:08;19.97;;;13.70;;
67456;SDS011;54319;52.038;4.640;2022-09-12T00:05:41;19.98;;;14.13;;
67456;SDS011;54319;52.038;4.640;2022-09-12T00:08:09;18.67;;;12.55;;
67456;SDS011;54319;52.038;4.640;2022-09-12T00:10:36;20.63;;;13.55;;
67456;SDS011;54319;52.038;4.640;2022-09-12T00:13:04;17.35;;;13.18;;
67456;SDS011;54319;52.038;4.640;2022-09-12T00:15:31;19.58;;;13.57;;
67456;SDS011;54319;52.038;4.640;2022-09-12T00:17:57;19.40;;;13.27;;
67456;SDS011;54319;52.038;4.640;2022-09-12T00:20:26;19.55;;;13.40;;
67456;SDS011;54319;52.038;4.640;2022-09-12T00:22:53;16.08;;;12.35;;
67456;SDS011;54319;52.038;4.640;2022-09-12T00:25:20;19.73;;;13.38;;
67456;SDS011;54319;52.038;4.640;2022-09-12T00:27:46;18.63;;;13.30;;
67456;SDS011;54319;52.038;4.640;2022-09-12T00:30:13;17.63;;;12.80;;
67456;SDS011;54319;52.038;4.640;2022-09-12T00:32:40;20.05;;;13.90;;
67456;SDS011;54319;52.038;4.640;2022-09-12T00:35:07;20.80;;;13.85;;
67456;SDS011;54319;52.038;4.640;2022-09-12T00:37:35;19.92;;;13.48;;
67456;SDS011;54319;52.038;4.640;2022-09-12T00:40:03;20.60;;;12.93;;
67456;SDS011;54319;52.038;4.640;2022-09-12T00:42:30;21.88;;;13.88;;
67456;SDS011;54319;52.038;4.640;2022-09-12T00:44:57;19.60;;;13.05;;
67456;SDS011;54319;52.038;4.640;2022-09-12T00:47:25;18.17;;;12.50;;
67456;SDS011;54319;52.038;4.640;2022-09-12T00:49:56;20.50;;;12.73;;
67456;SDS011;54319;52.038;4.640;2022-09-12T00:52:27;17.45;;;12.68;;
67456;SDS011;54319;52.038;4.640;2022-09-12T00:55:00;22.23;;;13.60;;
67456;SDS011;54319;52.038;4.640;2022-09-12T00:57:31;20.15;;;12.68;;
67456;SDS011;54319;52.038;4.640;2022-09-12T01:00:05;17.98;;;12.65;;
67456;SDS011;54319;52.038;4.640;2022-09-12T01:02:37;24.15;;;12.95;;
67456;SDS011;54319;52.038;4.640;2022-09-12T01:05:05;18.98;;;13.30;;
67456;SDS011;54319;52.038;4.640;2022-09-12T01:07:33;18.60;;;13.02;;
67456;SDS011;54319;52.038;4.640;2022-09-12T01:10:02;19.60;;;12.23;;
67456;SDS011;54319;52.038;4.640;2022-09-12T01:12:30;16.95;;;12.02;;
67456;SDS011;54319;52.038;4.640;2022-09-12T01:14:57;17.98;;;12.07;;
67456;SDS011;54319;52.038;4.640;2022-09-12T01:17:25;17.63;;;11.50;;
67456;SDS011;54319;52.038;4.640;2022-09-12T01:23:07;16.92;;;12.32;;
67456;SDS011;54319;52.038;4.640;2022-09-12T01:25:45;19.40;;;12.23;;
67456;SDS011;54319;52.038;4.640;2022-09-12T01:28:30;17.65;;;13.00;;
67456;SDS011;54319;52.038;4.640;2022-09-12T01:31:18;18.17;;;12.02;;
67456;SDS011;54319;52.038;4.640;2022-09-12T01:33:54;18.52;;;12.40;;
67456;SDS011;54319;52.038;4.640;2022-09-12T01:36:34;17.67;;;12.18;;
67456;SDS011;54319;52.038;4.640;2022-09-12T01:39:08;19.23;;;13.00;;
67456;SDS011;54319;52.038;4.640;2022-09-12T01:41:50;19.30;;;12.50;;
67456;SDS011;54319;52.038;4.640;2022-09-12T01:44:22;18.90;;;12.30;;
67456;SDS011;54319;52.038;4.640;2022-09-12T01:47:03;17.80;;;11.88;;
67456;SDS011;54319;52.038;4.640;2022-09-12T01:49:36;18.67;;;12.02;;
67456;SDS011;54319;52.038;4.640;2022-09-12T01:52:11;18.02;;;12.43;;
67456;SDS011;54319;52.038;4.640;2022-09-12T01:54:45;17.10;;;11.88;;
67456;SDS011;54319;52.038;4.640;2022-09-12T01:57:16;20.20;;;11.85;;
67456;SDS011;54319;52.038;4.640;2022-09-12T01:59:50;17.77;;;11.93;;
67456;SDS011;54319;52.038;4.640;2022-09-12T02:02:22;20.50;;;12.00;;
67456;SDS011;54319;52.038;4.640;2022-09-12T02:04:57;15.57;;;11.27;;
67456;SDS011;54319;52.038;4.640;2022-09-12T02:07:30;22.40;;;12.85;;
67456;SDS011;54319;52.038;4.640;2022-09-12T02:10:04;17.35;;;12.32;;
67456;SDS011;54319;52.038;4.640;2022-09-12T02:12:36;16.10;;;11.43;;
67456;SDS011;54319;52.038;4.640;2022-09-12T02:15:09;16.92;;;11.50;;
67456;SDS011;54319;52.038;4.640;2022-09-12T02:17:40;16.27;;;11.07;;
67456;SDS011;54319;52.038;4.640;2022-09-12T02:20:11;21.20;;;12.52;;
67456;SDS011;54319;52.038;4.640;2022-09-12T02:22:42;19.65;;;12.25;;
67456;SDS011;54319;52.038;4.640;2022-09-12T02:25:11;17.40;;;12.27;;
67456;SDS011;54319;52.038;4.640;2022-09-12T02:27:43;17.35;;;12.32;;
67456;SDS011;54319;52.038;4.640;2022-09-12T02:30:15;18.30;;;12.10;;
67456;SDS011;54319;52.038;4.640;2022-09-12T02:32:46;18.60;;;12.65;;
67456;SDS011;54319;52.038;4.640;2022-09-12T02:35:29;18.55;;;12.80;;
67456;SDS011;54319;52.038;4.640;2022-09-12T02:38:03;21.25;;;13.30;;
67456;SDS011;54319;52.038;4.640;2022-09-12T02:40:33;20.20;;;11.85;;
67456;SDS011;54319;52.038;4.640;2022-09-12T02:43:01;20.52;;;11.70;;
67456;SDS011;54319;52.038;4.640;2022-09-12T02:45:30;21.75;;;12.23;;
67456;SDS011;54319;52.038;4.640;2022-09-12T02:48:01;18.70;;;11.82;;
67456;SDS011;54319;52.038;4.640;2022-09-12T02:50:33;21.52;;;12.95;;
67456;SDS011;54319;52.038;4.640;2022-09-12T02:53:00;21.63;;;12.20;;
67456;SDS011;54319;52.038;4.640;2022-09-12T02:55:29;17.98;;;12.25;;
67456;SDS011;54319;52.038;4.640;2022-09-12T02:57:57;16.70;;;11.98;;
67456;SDS011;54319;52.038;4.640;2022-09-12T03:00:26;18.13;;;11.02;;
67456;SDS011;54319;52.038;4.640;2022-09-12T03:03:05;18.77;;;12.40;;
67456;SDS011;54319;52.038;4.640;2022-09-12T03:05:44;20.60;;;12.00;;
67456;SDS011;54319;52.038;4.640;2022-09-12T03:08:29;23.15;;;12.38;;
67456;SDS011;54319;52.038;4.640;2022-09-12T03:11:12;17.67;;;11.45;;
67456;SDS011;54319;52.038;4.640;2022-09-12T03:13:55;19.15;;;12.07;;
67456;SDS011;54319;52.038;4.640;2022-09-12T03:16:32;20.48;;;12.35;;
67456;SDS011;54319;52.038;4.640;2022-09-12T03:19:11;19.77;;;13.25;;
67456;SDS011;54319;52.038;4.640;2022-09-12T03:21:47;20.10;;;13.02;;
67456;SDS011;54319;52.038;4.640;2022-09-12T03:24:23;19.52;;;12.45;;
67456;SDS011;54319;52.038;4.640;2022-09-12T03:26:57;20.05;;;13.27;;
67456;SDS011;54319;52.038;4.640;2022-09-12T03:29:30;21.65;;;13.15;;
67456;SDS011;54319;52.038;4.640;2022-09-12T03:34:26;19.27;;;12.07;;
67456;SDS011;54319;52.038;4.640;2022-09-12T03:36:53;18.25;;;11.90;;
67456;SDS011;54319;52.038;4.640;2022-09-12T03:41:50;17.88;;;11.73;;
67456;SDS011;54319;52.038;4.640;2022-09-12T03:44:17;20.15;;;12.32;;
67456;SDS011;54319;52.038;4.640;2022-09-12T03:46:44;17.35;;;12.23;;
67456;SDS011;54319;52.038;4.640;2022-09-12T03:49:13;21.48;;;12.95;;
67456;SDS011;54319;52.038;4.640;2022-09-12T03:51:42;18.27;;;12.05;;
67456;SDS011;54319;52.038;4.640;2022-09-12T03:54:08;17.95;;;11.95;;
67456;SDS011;54319;52.038;4.640;2022-09-12T03:56:36;17.85;;;11.70;;
67456;SDS011;54319;52.038;4.640;2022-09-12T03:59:05;19.33;;;13.10;;
67456;SDS011;54319;52.038;4.640;2022-09-12T04:06:27;20.85;;;12.65;;
67456;SDS011;54319;52.038;4.640;2022-09-12T04:11:23;21.15;;;12.60;;
67456;SDS011;54319;52.038;4.640;2022-09-12T04:13:49;20.70;;;13.17;;
67456;SDS011;54319;52.038;4.640;2022-09-12T04:18:44;17.50;;;11.65;;
67456;SDS011;54319;52.038;4.640;2022-09-12T04:21:12;21.08;;;13.23;;
67456;SDS011;54319;52.038;4.640;2022-09-12T04:23:41;22.92;;;12.75;;
67456;SDS011;54319;52.038;4.640;2022-09-12T04:26:11;23.83;;;13.85;;
67456;SDS011;54319;52.038;4.640;2022-09-12T04:28:38;17.50;;;12.32;;
67456;SDS011;54319;52.038;4.640;2022-09-12T04:31:06;18.45;;;12.23;;
67456;SDS011;54319;52.038;4.640;2022-09-12T04:33:36;19.67;;;12.80;;
67456;SDS011;54319;52.038;4.640;2022-09-12T04:36:04;24.52;;;13.65;;
67456;SDS011;54319;52.038;4.640;2022-09-12T04:38:31;23.08;;;14.02;;
67456;SDS011;54319;52.038;4.640;2022-09-12T04:43:29;19.88;;;11.73;;
67456;SDS011;54319;52.038;4.640;2022-09-12T04:45:57;18.77;;;12.75;;
67456;SDS011;54319;52.038;4.640;2022-09-12T04:48:30;24.48;;;14.10;;
67456;SDS011;54319;52.038;4.640;2022-09-12T04:51:04;20.33;;;13.38;;
67456;SDS011;54319;52.038;4.640;2022-09-12T04:53:32;22.95;;;13.98;;
67456;SDS011;54319;52.038;4.640;2022-09-12T04:56:00;22.77;;;13.77;;
67456;SDS011;54319;52.038;4.640;2022-09-12T04:58:29;22.67;;;13.57;;
67456;SDS011;54319;52.038;4.640;2022-09-12T05:01:02;22.65;;;13.68;;
67456;SDS011;54319;52.038;4.640;2022-09-12T05:03:30;21.05;;;13.63;;
67456;SDS011;54319;52.038;4.640;2022-09-12T05:05:57;22.90;;;14.23;;
67456;SDS011;54319;52.038;4.640;2022-09-12T05:08:24;25.95;;;13.98;;
67456;SDS011;54319;52.038;4.640;2022-09-12T05:10:52;27.73;;;15.38;;
67456;SDS011;54319;52.038;4.640;2022-09-12T05:13:19;24.75;;;14.88;;
67456;SDS011;54319;52.038;4.640;2022-09-12T05:15:54;28.95;;;15.32;;
67456;SDS011;54319;52.038;4.640;2022-09-12T05:18:21;26.88;;;15.20;;
67456;SDS011;54319;52.038;4.640;2022-09-12T05:20:50;25.63;;;15.30;;
67456;SDS011;54319;52.038;4.640;2022-09-12T05:23:17;24.55;;;13.88;;
67456;SDS011;54319;52.038;4.640;2022-09-12T05:25:47;24.60;;;14.95;;
67456;SDS011;54319;52.038;4.640;2022-09-12T05:28:15;26.33;;;15.65;;
67456;SDS011;54319;52.038;4.640;2022-09-12T05:30:42;26.77;;;14.82;;
67456;SDS011;54319;52.038;4.640;2022-09-12T05:33:10;22.80;;;14.87;;
67456;SDS011;54319;52.038;4.640;2022-09-12T05:35:37;23.98;;;15.13;;
67456;SDS011;54319;52.038;4.640;2022-09-12T05:38:04;26.65;;;15.48;;
67456;SDS011;54319;52.038;4.640;2022-09-12T05:40:32;29.70;;;15.98;;
67456;SDS011;54319;52.038;4.640;2022-09-12T05:42:59;29.83;;;16.17;;
67456;SDS011;54319;52.038;4.640;2022-09-12T05:45:28;26.75;;;15.73;;
67456;SDS011;54319;52.038;4.640;2022-09-12T05:47:54;30.58;;;15.73;;
67456;SDS011;54319;52.038;4.640;2022-09-12T05:50:23;28.13;;;15.00;;
67456;SDS011;54319;52.038;4.640;2022-09-12T05:52:51;26.25;;;15.48;;
67456;SDS011;54319;52.038;4.640;2022-09-12T05:55:24;26.35;;;16.02;;
67456;SDS011;54319;52.038;4.640;2022-09-12T05:57:51;28.02;;;16.27;;
67456;SDS011;54319;52.038;4.640;2022-09-12T06:00:18;23.35;;;14.52;;
67456;SDS011;54319;52.038;4.640;2022-09-12T06:02:50;29.35;;;16.48;;
67456;SDS011;54319;52.038;4.640;2022-09-12T06:05:17;29.15;;;15.60;;
67456;SDS011;54319;52.038;4.640;2022-09-12T06:07:48;27.40;;;16.02;;
67456;SDS011;54319;52.038;4.640;2022-09-12T06:10:15;24.55;;;15.45;;
67456;SDS011;54319;52.038;4.640;2022-09-12T06:12:42;33.08;;;15.38;;
67456;SDS011;54319;52.038;4.640;2022-09-12T06:15:09;25.50;;;15.60;;
67456;SDS011;54319;52.038;4.640;2022-09-12T06:17:36;27.20;;;15.18;;
67456;SDS011;54319;52.038;4.640;2022-09-12T06:20:03;27.27;;;15.35;;
67456;SDS011;54319;52.038;4.640;2022-09-12T06:22:30;30.85;;;16.23;;
67456;SDS011;54319;52.038;4.640;2022-09-12T06:25:00;25.45;;;15.23;;
67456;SDS011;54319;52.038;4.640;2022-09-12T06:27:27;28.15;;;15.15;;
67456;SDS011;54319;52.038;4.640;2022-09-12T06:29:54;27.92;;;15.73;;
67456;SDS011;54319;52.038;4.640;2022-09-12T06:32:20;28.77;;;15.60;;
67456;SDS011;54319;52.038;4.640;2022-09-12T06:34:47;23.73;;;14.98;;
67456;SDS011;54319;52.038;4.640;2022-09-12T06:37:14;27.70;;;15.25;;
67456;SDS011;54319;52.038;4.640;2022-09-12T06:39:42;28.42;;;15.40;;
67456;SDS011;54319;52.038;4.640;2022-09-12T06:42:12;27.73;;;15.07;;
67456;SDS011;54319;52.038;4.640;2022-09-12T06:44:39;29.98;;;15.55;;
67456;SDS011;54319;52.038;4.640;2022-09-12T06:47:06;27.83;;;15.77;;
67456;SDS011;54319;52.038;4.640;2022-09-12T06:49:34;28.88;;;15.27;;
67456;SDS011;54319;52.038;4.640;2022-09-12T06:52:00;23.27;;;15.10;;
67456;SDS011;54319;52.038;4.640;2022-09-12T06:54:27;23.80;;;14.15;;
67456;SDS011;54319;52.038;4.640;2022-09-12T06:56:55;23.73;;;15.07;;
67456;SDS011;54319;52.038;4.640;2022-09-12T06:59:23;25.17;;;15.97;;
67456;SDS011;54319;52.038;4.640;2022-09-12T07:01:50;23.27;;;14.98;;
67456;SDS011;54319;52.038;4.640;2022-09-12T07:04:17;26.63;;;15.48;;
67456;SDS011;54319;52.038;4.640;2022-09-12T07:06:43;27.63;;;14.60;;
67456;SDS011;54319;52.038;4.640;2022-09-12T07:09:11;24.73;;;14.40;;
67456;SDS011;54319;52.038;4.640;2022-09-12T07:11:40;25.45;;;14.95;;
67456;SDS011;54319;52.038;4.640;2022-09-12T07:14:08;21.10;;;14.38;;
67456;SDS011;54319;52.038;4.640;2022-09-12T07:16:39;23.83;;;14.40;;
67456;SDS011;54319;52.038;4.640;2022-09-12T07:19:06;25.75;;;14.60;;
67456;SDS011;54319;52.038;4.640;2022-09-12T07:21:34;25.00;;;15.05;;
67456;SDS011;54319;52.038;4.640;2022-09-12T07:24:06;29.20;;;14.68;;
67456;SDS011;54319;52.038;4.640;2022-09-12T07:26:34;27.30;;;15.30;;
67456;SDS011;54319;52.038;4.640;2022-09-12T07:29:01;24.67;;;14.40;;
67456;SDS011;54319;52.038;4.640;2022-09-12T07:31:29;23.00;;;14.65;;
67456;SDS011;54319;52.038;4.640;2022-09-12T07:33:58;25.75;;;14.27;;
67456;SDS011;54319;52.038;4.640;2022-09-12T07:36:28;19.13;;;12.43;;
67456;SDS011;54319;52.038;4.640;2022-09-12T07:38:55;20.23;;;11.82;;
67456;SDS011;54319;52.038;4.640;2022-09-12T07:41:24;16.23;;;11.73;;
67456;SDS011;54319;52.038;4.640;2022-09-12T07:43:52;17.98;;;12.43;;
67456;SDS011;54319;52.038;4.640;2022-09-12T07:46:21;19.17;;;12.10;;
67456;SDS011;54319;52.038;4.640;2022-09-12T07:48:49;18.58;;;11.90;;
67456;SDS011;54319;52.038;4.640;2022-09-12T07:51:17;15.70;;;10.80;;
67456;SDS011;54319;52.038;4.640;2022-09-12T07:53:45;14.30;;;10.73;;
67456;SDS011;54319;52.038;4.640;2022-09-12T07:56:13;17.83;;;12.38;;
67456;SDS011;54319;52.038;4.640;2022-09-12T07:58:41;18.98;;;11.68;;
67456;SDS011;54319;52.038;4.640;2022-09-12T08:01:10;17.85;;;11.38;;
67456;SDS011;54319;52.038;4.640;2022-09-12T08:03:39;15.40;;;11.75;;
67456;SDS011;54319;52.038;4.640;2022-09-12T08:06:09;15.32;;;11.23;;
67456;SDS011;54319;52.038;4.640;2022-09-12T08:08:39;16.02;;;11.00;;
67456;SDS011;54319;52.038;4.640;2022-09-12T08:11:06;17.83;;;11.35;;
67456;SDS011;54319;52.038;4.640;2022-09-12T08:13:35;16.77;;;11.80;;
67456;SDS011;54319;52.038;4.640;2022-09-12T08:16:03;17.73;;;11.05;;
67456;SDS011;54319;52.038;4.640;2022-09-12T08:18:31;17.15;;;11.63;;
67456;SDS011;54319;52.038;4.640;2022-09-12T08:21:01;19.08;;;11.02;;
67456;SDS011;54319;52.038;4.640;2022-09-12T08:23:29;19.42;;;11.52;;
67456;SDS011;54319;52.038;4.640;2022-09-12T08:25:58;17.92;;;10.40;;
67456;SDS011;54319;52.038;4.640;2022-09-12T08:28:28;15.45;;;10.82;;
67456;SDS011;54319;52.038;4.640;2022-09-12T08:30:59;15.32;;;10.88;;
67456;SDS011;54319;52.038;4.640;2022-09-12T08:33:26;19.17;;;11.00;;
67456;SDS011;54319;52.038;4.640;2022-09-12T08:36:01;18.27;;;11.05;;
67456;SDS011;54319;52.038;4.640;2022-09-12T08:38:29;18.35;;;10.57;;
67456;SDS011;54319;52.038;4.640;2022-09-12T08:40:59;15.07;;;10.35;;
67456;SDS011;54319;52.038;4.640;2022-09-12T08:43:32;14.23;;;9.40;;
67456;SDS011;54319;52.038;4.640;2022-09-12T08:46:16;11.65;;;7.65;;
67456;SDS011;54319;52.038;4.640;2022-09-12T08:48:47;12.32;;;7.60;;
67456;SDS011;54319;52.038;4.640;2022-09-12T08:51:16;10.65;;;7.40;;
67456;SDS011;54319;52.038;4.640;2022-09-12T08:53:44;10.40;;;7.20;;
67456;SDS011;54319;52.038;4.640;2022-09-12T08:56:14;9.98;;;6.93;;
67456;SDS011;54319;52.038;4.640;2022-09-12T08:58:42;10.77;;;6.53;;
67456;SDS011;54319;52.038;4.640;2022-09-12T09:01:15;9.85;;;6.80;;
67456;SDS011;54319;52.038;4.640;2022-09-12T09:07:03;11.13;;;6.97;;
67456;SDS011;54319;52.038;4.640;2022-09-12T09:09:51;10.23;;;6.20;;
67456;SDS011;54319;52.038;4.640;2022-09-12T09:12:27;11.73;;;7.28;;
67456;SDS011;54319;52.038;4.640;2022-09-12T09:18:08;8.07;;;5.85;;
67456;SDS011;54319;52.038;4.640;2022-09-12T09:20:43;8.35;;;6.28;;
67456;SDS011;54319;52.038;4.640;2022-09-12T09:23:14;7.55;;;5.53;;
67456;SDS011;54319;52.038;4.640;2022-09-12T09:25:49;8.30;;;5.90;;
67456;SDS011;54319;52.038;4.640;2022-09-12T09:28:24;9.32;;;5.93;;
67456;SDS011;54319;52.038;4.640;2022-09-12T09:31:01;11.70;;;5.13;;
67456;SDS011;54319;52.038;4.640;2022-09-12T09:33:30;6.82;;;4.60;;
67456;SDS011;54319;52.038;4.640;2022-09-12T09:36:01;8.77;;;5.18;;
67456;SDS011;54319;52.038;4.640;2022-09-12T09:38:37;6.88;;;4.72;;
67456;SDS011;54319;52.038;4.640;2022-09-12T09:44:09;6.95;;;4.60;;
67456;SDS011;54319;52.038;4.640;2022-09-12T09:46:36;6.15;;;4.40;;
67456;SDS011;54319;52.038;4.640;2022-09-12T09:49:03;5.85;;;4.20;;
67456;SDS011;54319;52.038;4.640;2022-09-12T09:51:33;7.28;;;5.35;;
67456;SDS011;54319;52.038;4.640;2022-09-12T09:54:02;7.82;;;5.20;;
67456;SDS011;54319;52.038;4.640;2022-09-12T09:56:36;8.55;;;5.00;;
67456;SDS011;54319;52.038;4.640;2022-09-12T09:59:11;7.45;;;3.92;;
67456;SDS011;54319;52.038;4.640;2022-09-12T10:01:45;5.88;;;4.07;;
67456;SDS011;54319;52.038;4.640;2022-09-12T10:04:17;4.38;;;3.00;;
67456;SDS011;54319;52.038;4.640;2022-09-12T10:06:46;5.82;;;3.25;;
67456;SDS011;54319;52.038;4.640;2022-09-12T10:09:20;4.28;;;2.90;;
67456;SDS011;54319;52.038;4.640;2022-09-12T10:11:49;3.90;;;2.50;;
67456;SDS011;54319;52.038;4.640;2022-09-12T10:14:28;5.43;;;2.50;;
67456;SDS011;54319;52.038;4.640;2022-09-12T10:17:01;5.43;;;2.90;;
67456;SDS011;54319;52.038;4.640;2022-09-12T10:19:41;5.55;;;3.38;;
67456;SDS011;54319;52.038;4.640;2022-09-12T10:22:11;4.63;;;2.90;;
67456;SDS011;54319;52.038;4.640;2022-09-12T10:24:45;7.40;;;4.10;;
67456;SDS011;54319;52.038;4.640;2022-09-12T10:27:15;13.43;;;5.85;;
67456;SDS011;54319;52.038;4.640;2022-09-12T10:29:47;7.55;;;4.40;;
67456;SDS011;54319;52.038;4.640;2022-09-12T10:32:20;5.60;;;2.90;;
67456;SDS011;54319;52.038;4.640;2022-09-12T10:34:55;4.00;;;2.60;;
67456;SDS011;54319;52.038;4.640;2022-09-12T10:37:27;3.20;;;2.80;;
67456;SDS011;54319;52.038;4.640;2022-09-12T10:39:57;4.10;;;2.70;;
67456;SDS011;54319;52.038;4.640;2022-09-12T10:42:47;4.90;;;2.70;;
67456;SDS011;54319;52.038;4.640;2022-09-12T10:45:26;3.53;;;2.63;;
67456;SDS011;54319;52.038;4.640;2022-09-12T10:47:55;6.40;;;2.90;;
67456;SDS011;54319;52.038;4.640;2022-09-12T10:50:26;11.52;;;3.22;;
67456;SDS011;54319;52.038;4.640;2022-09-12T10:53:11;5.20;;;2.90;;
67456;SDS011;54319;52.038;4.640;2022-09-12T10:55:41;3.15;;;2.50;;
67456;SDS011;54319;52.038;4.640;2022-09-12T10:58:28;4.15;;;2.65;;
67456;SDS011;54319;52.038;4.640;2022-09-12T11:01:06;3.53;;;2.70;;
67456;SDS011;54319;52.038;4.640;2022-09-12T11:03:49;6.10;;;2.95;;
67456;SDS011;54319;52.038;4.640;2022-09-12T11:06:29;4.07;;;2.88;;
67456;SDS011;54319;52.038;4.640;2022-09-12T11:09:04;4.70;;;2.60;;
67456;SDS011;54319;52.038;4.640;2022-09-12T11:11:49;3.95;;;2.92;;
67456;SDS011;54319;52.038;4.640;2022-09-12T11:14:33;4.28;;;3.20;;
67456;SDS011;54319;52.038;4.640;2022-09-12T11:17:13;3.60;;;2.80;;
67456;SDS011;54319;52.038;4.640;2022-09-12T11:19:56;3.88;;;3.10;;
67456;SDS011;54319;52.038;4.640;2022-09-12T11:22:41;7.85;;;3.13;;
67456;SDS011;54319;52.038;4.640;2022-09-12T11:25:22;4.65;;;3.50;;
67456;SDS011;54319;52.038;4.640;2022-09-12T11:30:51;6.38;;;3.13;;
67456;SDS011;54319;52.038;4.640;2022-09-12T11:33:33;5.18;;;3.38;;
67456;SDS011;54319;52.038;4.640;2022-09-12T11:36:11;4.75;;;3.38;;
67456;SDS011;54319;52.038;4.640;2022-09-12T11:38:55;5.25;;;2.88;;
67456;SDS011;54319;52.038;4.640;2022-09-12T11:41:29;5.40;;;3.22;;
67456;SDS011;54319;52.038;4.640;2022-09-12T11:44:01;5.63;;;3.22;;
67456;SDS011;54319;52.038;4.640;2022-09-12T11:46:37;3.90;;;3.08;;
67456;SDS011;54319;52.038;4.640;2022-09-12T11:49:11;5.65;;;2.70;;
67456;SDS011;54319;52.038;4.640;2022-09-12T11:51:47;4.07;;;2.50;;
67456;SDS011;54319;52.038;4.640;2022-09-12T11:54:20;2.95;;;2.58;;
67456;SDS011;54319;52.038;4.640;2022-09-12T11:56:56;3.92;;;2.80;;
67456;SDS011;54319;52.038;4.640;2022-09-12T11:59:34;4.72;;;3.00;;
67456;SDS011;54319;52.038;4.640;2022-09-12T12:02:10;4.20;;;3.08;;
67456;SDS011;54319;52.038;4.640;2022-09-12T12:04:42;4.45;;;3.30;;
67456;SDS011;54319;52.038;4.640;2022-09-12T12:07:21;3.50;;;2.55;;
67456;SDS011;54319;52.038;4.640;2022-09-12T12:09:50;3.85;;;2.80;;
67456;SDS011;54319;52.038;4.640;2022-09-12T12:12:20;3.50;;;3.17;;
67456;SDS011;54319;52.038;4.640;2022-09-12T12:14:50;5.88;;;3.20;;
67456;SDS011;54319;52.038;4.640;2022-09-12T12:17:21;8.63;;;3.05;;
67456;SDS011;54319;52.038;4.640;2022-09-12T12:19:57;4.47;;;2.90;;
67456;SDS011;54319;52.038;4.640;2022-09-12T12:22:26;4.80;;;3.00;;
67456;SDS011;54319;52.038;4.640;2022-09-12T12:27:51;3.33;;;2.75;;
67456;SDS011;54319;52.038;4.640;2022-09-12T12:36:35;3.75;;;2.50;;
67456;SDS011;54319;52.038;4.640;2022-09-12T12:45:46;4.25;;;3.17;;
67456;SDS011;54319;52.038;4.640;2022-09-12T12:48:29;5.93;;;3.03;;
67456;SDS011;54319;52.038;4.640;2022-09-12T12:51:13;7.55;;;3.58;;
67456;SDS011;54319;52.038;4.640;2022-09-12T12:53:48;4.93;;;3.20;;
67456;SDS011;54319;52.038;4.640;2022-09-12T12:56:25;6.18;;;3.33;;
67456;SDS011;54319;52.038;4.640;2022-09-12T12:58:57;5.63;;;3.70;;
67456;SDS011;54319;52.038;4.640;2022-09-12T13:01:26;3.20;;;2.90;;
67456;SDS011;54319;52.038;4.640;2022-09-12T13:03:55;11.65;;;3.17;;
67456;SDS011;54319;52.038;4.640;2022-09-12T13:06:28;2.92;;;2.50;;
67456;SDS011;54319;52.038;4.640;2022-09-12T13:09:01;4.80;;;2.88;;
67456;SDS011;54319;52.038;4.640;2022-09-12T13:11:32;3.17;;;2.70;;
67456;SDS011;54319;52.038;4.640;2022-09-12T13:14:01;4.10;;;2.90;;
67456;SDS011;54319;52.038;4.640;2022-09-12T13:16:31;5.20;;;2.83;;
67456;SDS011;54319;52.038;4.640;2022-09-12T13:19:02;3.42;;;2.80;;
67456;SDS011;54319;52.038;4.640;2022-09-12T13:21:32;4.90;;;2.70;;
67456;SDS011;54319;52.038;4.640;2022-09-12T13:23:59;4.68;;;3.38;;
67456;SDS011;54319;52.038;4.640;2022-09-12T13:26:32;4.43;;;3.03;;
67456;SDS011;54319;52.038;4.640;2022-09-12T13:29:09;5.75;;;2.80;;
67456;SDS011;54319;52.038;4.640;2022-09-12T13:31:43;5.15;;;2.67;;
67456;SDS011;54319;52.038;4.640;2022-09-12T13:34:12;8.35;;;2.50;;
67456;SDS011;54319;52.038;4.640;2022-09-12T13:36:52;6.28;;;2.80;;
67456;SDS011;54319;52.038;4.640;2022-09-12T13:39:39;4.63;;;2.70;;
67456;SDS011;54319;52.038;4.640;2022-09-12T13:45:18;2.35;;;2.15;;
67456;SDS011;54319;52.038;4.640;2022-09-12T13:47:58;4.32;;;2.78;;
67456;SDS011;54319;52.038;4.640;2022-09-12T13:50:29;3.58;;;2.65;;
67456;SDS011;54319;52.038;4.640;2022-09-12T13:52:58;6.32;;;2.60;;
67456;SDS011;54319;52.038;4.640;2022-09-12T13:55:31;6.63;;;2.83;;
67456;SDS011;54319;52.038;4.640;2022-09-12T13:58:02;4.65;;;3.13;;
67456;SDS011;54319;52.038;4.640;2022-09-12T14:00:30;4.75;;;3.30;;
67456;SDS011;54319;52.038;4.640;2022-09-12T14:02:59;4.40;;;3.00;;
67456;SDS011;54319;52.038;4.640;2022-09-12T14:05:44;5.75;;;2.55;;
67456;SDS011;54319;52.038;4.640;2022-09-12T14:08:20;3.85;;;2.30;;
67456;SDS011;54319;52.038;4.640;2022-09-12T14:10:52;3.25;;;1.90;;
67456;SDS011;54319;52.038;4.640;2022-09-12T14:13:21;3.78;;;2.40;;
67456;SDS011;54319;52.038;4.640;2022-09-12T14:15:54;4.15;;;2.80;;
67456;SDS011;54319;52.038;4.640;2022-09-12T14:18:24;3.60;;;2.60;;
67456;SDS011;54319;52.038;4.640;2022-09-12T14:20:52;3.85;;;2.50;;
67456;SDS011;54319;52.038;4.640;2022-09-12T14:23:26;4.47;;;2.50;;
67456;SDS011;54319;52.038;4.640;2022-09-12T14:25:56;5.65;;;2.90;;
67456;SDS011;54319;52.038;4.640;2022-09-12T14:28:25;3.47;;;2.20;;
67456;SDS011;54319;52.038;4.640;2022-09-12T14:30:59;4.03;;;2.70;;
67456;SDS011;54319;52.038;4.640;2022-09-12T14:33:30;4.85;;;2.60;;
67456;SDS011;54319;52.038;4.640;2022-09-12T14:36:07;2.53;;;1.92;;
67456;SDS011;54319;52.038;4.640;2022-09-12T14:38:36;3.80;;;2.40;;
67456;SDS011;54319;52.038;4.640;2022-09-12T14:41:09;4.90;;;2.85;;
67456;SDS011;54319;52.038;4.640;2022-09-12T14:43:39;5.97;;;2.00;;
67456;SDS011;54319;52.038;4.640;2022-09-12T14:46:14;3.13;;;2.20;;
67456;SDS011;54319;52.038;4.640;2022-09-12T14:48:45;3.55;;;2.58;;
67456;SDS011;54319;52.038;4.640;2022-09-12T14:51:21;3.08;;;2.42;;
67456;SDS011;54319;52.038;4.640;2022-09-12T14:53:50;2.80;;;2.00;;
67456;SDS011;54319;52.038;4.640;2022-09-12T14:56:20;4.10;;;2.38;;
67456;SDS011;54319;52.038;4.640;2022-09-12T15:04:52;3.53;;;1.98;;
67456;SDS011;54319;52.038;4.640;2022-09-12T15:07:24;2.60;;;2.13;;
67456;SDS011;54319;52.038;4.640;2022-09-12T15:10:01;4.60;;;1.90;;
67456;SDS011;54319;52.038;4.640;2022-09-12T15:12:31;2.10;;;1.80;;
67456;SDS011;54319;52.038;4.640;2022-09-12T15:14:59;4.35;;;2.50;;
67456;SDS011;54319;52.038;4.640;2022-09-12T15:17:38;2.67;;;2.03;;
67456;SDS011;54319;52.038;4.640;2022-09-12T15:20:09;4.43;;;2.03;;
67456;SDS011;54319;52.038;4.640;2022-09-12T15:22:40;2.72;;;2.00;;
67456;SDS011;54319;52.038;4.640;2022-09-12T15:25:09;3.45;;;2.30;;
67456;SDS011;54319;52.038;4.640;2022-09-12T15:27:39;4.45;;;2.33;;
67456;SDS011;54319;52.038;4.640;2022-09-12T15:30:06;4.72;;;2.42;;
67456;SDS011;54319;52.038;4.640;2022-09-12T15:32:36;3.58;;;2.30;;
67456;SDS011;54319;52.038;4.640;2022-09-12T15:35:04;7.35;;;2.60;;
67456;SDS011;54319;52.038;4.640;2022-09-12T15:37:38;3.22;;;2.10;;
67456;SDS011;54319;52.038;4.640;2022-09-12T15:40:07;3.55;;;2.20;;
67456;SDS011;54319;52.038;4.640;2022-09-12T15:42:35;3.45;;;2.25;;
67456;SDS011;54319;52.038;4.640;2022-09-12T15:45:10;2.92;;;2.10;;
67456;SDS011;54319;52.038;4.640;2022-09-12T15:47:44;4.22;;;2.40;;
67456;SDS011;54319;52.038;4.640;2022-09-12T15:50:11;3.90;;;2.15;;
67456;SDS011;54319;52.038;4.640;2022-09-12T15:52:38;3.15;;;2.28;;
67456;SDS011;54319;52.038;4.640;2022-09-12T15:55:05;3.15;;;2.10;;